createdAt,value
2022-12-27T00:01:13.485Z,4.23
2022-12-27T00:03:35.739Z,3.90
2022-12-27T00:05:57.894Z,3.40
2022-12-27T00:08:20.166Z,3.77
2022-12-27T00:10:42.374Z,3.77
2022-12-27T00:13:05.069Z,3.83
2022-12-27T00:15:27.386Z,3.43
2022-12-27T00:17:49.673Z,4.03
2022-12-27T00:20:12.253Z,4.10
2022-12-27T00:22:34.471Z,4.07
2022-12-27T00:24:56.712Z,3.40
2022-12-27T00:27:18.932Z,4.07
2022-12-27T00:29:41.857Z,3.97
2022-12-27T00:32:04.115Z,4.13
2022-12-27T00:34:26.351Z,4.13
2022-12-27T00:36:48.566Z,3.73
2022-12-27T00:39:11.465Z,3.53
2022-12-27T00:41:34.873Z,4.10
2022-12-27T00:43:57.139Z,3.87
2022-12-27T00:46:19.734Z,4.83
2022-12-27T00:48:42.197Z,4.00
2022-12-27T00:51:06.121Z,3.97
2022-12-27T00:53:29.451Z,4.20
2022-12-27T00:55:51.697Z,3.50
2022-12-27T00:58:13.881Z,3.80
2022-12-27T01:00:36.233Z,3.83
2022-12-27T01:02:58.440Z,3.33
2022-12-27T01:05:21.958Z,3.90
2022-12-27T01:07:44.297Z,3.67
2022-12-27T01:10:06.846Z,4.20
2022-12-27T01:12:29.119Z,3.73
2022-12-27T01:14:51.351Z,3.53
2022-12-27T01:17:13.522Z,3.30
2022-12-27T01:19:36.383Z,3.80
2022-12-27T01:21:58.620Z,3.63
2022-12-27T01:24:20.822Z,4.87
2022-12-27T01:26:43.118Z,3.73
2022-12-27T01:29:05.336Z,4.00
2022-12-27T01:31:28.472Z,3.70
2022-12-27T01:33:54.115Z,3.97
2022-12-27T01:36:20.542Z,3.63
2022-12-27T01:38:43.286Z,3.77
2022-12-27T01:41:25.858Z,4.03
2022-12-27T01:43:49.368Z,3.37
2022-12-27T01:46:11.619Z,3.80
2022-12-27T01:48:33.860Z,4.10
2022-12-27T01:50:58.051Z,3.60
2022-12-27T01:53:25.233Z,3.30
2022-12-27T01:55:47.533Z,4.20
2022-12-27T01:58:12.124Z,4.17
2022-12-27T02:00:34.394Z,3.93
2022-12-27T02:02:56.939Z,4.20
2022-12-27T02:05:20.341Z,4.07
2022-12-27T02:07:49.017Z,3.90
2022-12-27T02:10:11.522Z,3.80
2022-12-27T02:12:33.742Z,4.07
2022-12-27T02:14:56.066Z,4.20
2022-12-27T02:17:20.900Z,4.53
2022-12-27T02:19:43.143Z,4.40
2022-12-27T02:22:14.617Z,5.07
2022-12-27T02:24:45.545Z,4.17
2022-12-27T02:27:26.870Z,4.53
2022-12-27T02:29:55.013Z,4.87
2022-12-27T02:32:20.760Z,4.50
2022-12-27T02:34:51.841Z,5.37
2022-12-27T02:37:14.613Z,4.63
2022-12-27T02:39:38.990Z,4.60
2022-12-27T02:42:21.122Z,4.13
2022-12-27T02:45:02.269Z,4.93
2022-12-27T02:47:46.709Z,4.23
2022-12-27T02:50:28.468Z,4.77
2022-12-27T02:53:09.414Z,5.50
2022-12-27T02:56:08.285Z,4.67
2022-12-27T02:58:45.543Z,4.27
2022-12-27T03:01:45.723Z,4.90
2022-12-27T03:04:34.368Z,4.20
2022-12-27T03:07:14.007Z,4.80
2022-12-27T03:09:54.902Z,4.40
2022-12-27T03:12:42.074Z,4.70
2022-12-27T03:15:30.477Z,4.43
2022-12-27T03:18:03.509Z,4.60
2022-12-27T03:20:44.387Z,4.70
2022-12-27T03:23:28.046Z,5.03
2022-12-27T03:25:50.999Z,5.07
2022-12-27T03:28:39.727Z,4.50
2022-12-27T03:31:23.118Z,4.60
2022-12-27T03:33:46.482Z,5.03
2022-12-27T03:36:32.734Z,4.73
2022-12-27T03:39:07.512Z,4.50
2022-12-27T03:42:00.016Z,4.83
2022-12-27T03:44:25.605Z,4.30
2022-12-27T03:46:48.489Z,4.73
2022-12-27T03:49:10.761Z,4.40
2022-12-27T03:51:37.885Z,4.57
2022-12-27T03:54:04.799Z,4.90
2022-12-27T03:56:27.421Z,4.30
2022-12-27T03:58:53.194Z,3.87
2022-12-27T04:01:15.446Z,4.57
2022-12-27T04:03:37.927Z,4.20
2022-12-27T04:06:00.237Z,4.33
2022-12-27T04:08:41.018Z,5.33
2022-12-27T04:11:22.055Z,4.47
2022-12-27T04:14:03.477Z,4.57
2022-12-27T04:16:44.635Z,4.43
2022-12-27T04:19:25.381Z,5.03
2022-12-27T04:22:07.440Z,4.97
2022-12-27T04:24:48.442Z,5.60
2022-12-27T04:27:29.289Z,5.40
2022-12-27T04:30:10.278Z,5.17
2022-12-27T04:32:51.399Z,5.30
2022-12-27T04:35:13.993Z,5.10
2022-12-27T04:37:36.264Z,5.70
2022-12-27T04:40:17.095Z,6.57
2022-12-27T04:42:58.084Z,5.83
2022-12-27T04:45:39.481Z,5.27
2022-12-27T04:48:20.570Z,5.00
2022-12-27T04:51:01.528Z,5.07
2022-12-27T04:53:42.325Z,4.90
2022-12-27T04:56:05.041Z,5.17
2022-12-27T04:58:27.770Z,5.40
2022-12-27T05:01:19.062Z,5.50
2022-12-27T05:03:41.596Z,4.70
2022-12-27T05:06:04.117Z,5.33
2022-12-27T05:08:44.935Z,5.27
2022-12-27T05:11:26.787Z,5.57
2022-12-27T05:14:01.272Z,5.30
2022-12-27T05:16:23.884Z,5.63
2022-12-27T05:18:46.891Z,5.60
2022-12-27T05:21:09.229Z,5.33
2022-12-27T05:23:50.839Z,6.07
2022-12-27T05:26:18.518Z,6.10
2022-12-27T05:28:40.867Z,4.87
2022-12-27T05:31:03.245Z,5.47
2022-12-27T05:33:31.811Z,6.33
2022-12-27T05:35:54.198Z,7.17
2022-12-27T05:38:16.391Z,5.90
2022-12-27T05:40:38.827Z,5.87
2022-12-27T05:43:01.740Z,5.73
2022-12-27T05:45:24.009Z,5.80
2022-12-27T05:47:46.494Z,5.47
2022-12-27T05:50:08.898Z,5.73
2022-12-27T05:52:35.031Z,5.50
2022-12-27T05:54:59.897Z,5.27
2022-12-27T05:57:22.158Z,5.57
2022-12-27T05:59:44.411Z,6.20
2022-12-27T06:02:06.747Z,6.10
2022-12-27T06:04:29.286Z,5.93
2022-12-27T06:06:51.604Z,6.20
2022-12-27T06:09:13.803Z,5.90
2022-12-27T06:11:36.091Z,6.20
2022-12-27T06:13:58.308Z,5.57
2022-12-27T06:16:21.328Z,5.70
2022-12-27T06:18:43.744Z,5.70
2022-12-27T06:21:07.571Z,5.77
2022-12-27T06:23:30.997Z,5.77
2022-12-27T06:25:53.204Z,6.37
2022-12-27T06:28:15.466Z,6.07
2022-12-27T06:30:37.744Z,6.03
2022-12-27T06:32:59.893Z,5.83
2022-12-27T06:35:22.129Z,5.80
2022-12-27T06:37:44.352Z,6.17
2022-12-27T06:40:07.000Z,6.07
2022-12-27T06:42:31.337Z,5.27
2022-12-27T06:44:53.790Z,5.83
2022-12-27T06:47:16.442Z,6.13
2022-12-27T06:49:38.714Z,5.77
2022-12-27T06:52:00.924Z,6.07
2022-12-27T06:54:23.189Z,6.07
2022-12-27T06:56:45.435Z,5.93
2022-12-27T06:59:08.337Z,5.93
2022-12-27T07:01:30.914Z,5.23
2022-12-27T07:03:54.794Z,5.27
2022-12-27T07:06:17.405Z,5.33
2022-12-27T07:08:39.674Z,5.37
2022-12-27T07:11:06.981Z,5.43
2022-12-27T07:13:29.583Z,5.77
2022-12-27T07:15:51.843Z,5.77
2022-12-27T07:18:14.005Z,5.30
2022-12-27T07:20:36.471Z,5.57
2022-12-27T07:22:59.994Z,5.40
2022-12-27T07:25:22.316Z,5.27
2022-12-27T07:27:44.554Z,5.30
2022-12-27T07:30:07.115Z,5.23
2022-12-27T07:32:29.651Z,5.30
2022-12-27T07:34:52.149Z,5.67
2022-12-27T07:37:14.449Z,5.07
2022-12-27T07:39:36.722Z,5.40
2022-12-27T07:42:01.931Z,6.03
2022-12-27T07:44:32.781Z,5.57
2022-12-27T07:46:55.047Z,5.57
2022-12-27T07:49:18.184Z,5.53
2022-12-27T07:51:40.608Z,5.07
2022-12-27T07:54:02.870Z,5.07
2022-12-27T07:56:27.141Z,5.50
2022-12-27T07:58:49.924Z,5.70
2022-12-27T08:01:12.941Z,4.27
2022-12-27T08:03:35.447Z,4.60
2022-12-27T08:05:57.915Z,4.40
2022-12-27T08:08:21.758Z,5.43
2022-12-27T08:10:44.031Z,5.10
2022-12-27T08:13:06.499Z,4.43
2022-12-27T08:15:28.851Z,5.50
2022-12-27T08:17:51.089Z,6.27
2022-12-27T08:20:16.846Z,5.63
2022-12-27T08:22:39.123Z,5.27
2022-12-27T08:25:01.550Z,5.60
2022-12-27T08:27:24.558Z,5.70
2022-12-27T08:29:46.772Z,5.30
2022-12-27T08:32:09.003Z,5.40
2022-12-27T08:34:31.346Z,6.23
2022-12-27T08:36:56.557Z,5.33
2022-12-27T08:39:19.180Z,5.80
2022-12-27T08:41:41.373Z,5.70
2022-12-27T08:44:03.573Z,6.17
2022-12-27T08:46:25.820Z,6.30
2022-12-27T08:48:51.669Z,6.33
2022-12-27T08:51:18.718Z,5.93
2022-12-27T08:54:01.105Z,5.63
2022-12-27T08:56:23.613Z,5.73
2022-12-27T08:58:46.138Z,5.00
2022-12-27T09:01:09.305Z,5.67
2022-12-27T09:03:31.694Z,5.20
2022-12-27T09:05:54.074Z,4.77
2022-12-27T09:08:17.285Z,4.93
2022-12-27T09:10:39.836Z,5.20
2022-12-27T09:13:02.186Z,6.07
2022-12-27T09:15:24.551Z,5.70
2022-12-27T09:17:46.821Z,5.50
2022-12-27T09:20:09.486Z,5.17
2022-12-27T09:22:31.754Z,5.90
2022-12-27T09:24:54.063Z,5.73
2022-12-27T09:27:16.326Z,5.83
2022-12-27T09:29:43.005Z,5.63
2022-12-27T09:32:08.699Z,5.10
2022-12-27T09:34:31.014Z,4.70
2022-12-27T09:36:53.320Z,4.80
2022-12-27T09:39:17.117Z,5.13
2022-12-27T09:44:53.085Z,4.40
2022-12-27T09:47:15.465Z,4.80
2022-12-27T09:49:39.671Z,5.10
2022-12-27T09:52:11.624Z,5.13
2022-12-27T09:54:37.537Z,4.70
2022-12-27T09:57:19.385Z,4.70
2022-12-27T09:59:45.010Z,5.23
2022-12-27T10:02:18.932Z,5.67
2022-12-27T10:05:18.088Z,4.77
2022-12-27T10:07:41.530Z,5.77
2022-12-27T10:10:15.609Z,5.57
2022-12-27T10:12:56.527Z,5.40
2022-12-27T10:15:34.133Z,5.53
2022-12-27T10:18:03.048Z,5.07
2022-12-27T10:20:25.312Z,4.70
2022-12-27T10:22:53.273Z,5.17
2022-12-27T10:25:16.520Z,4.50
2022-12-27T10:27:40.041Z,4.90
2022-12-27T10:30:03.563Z,5.17
2022-12-27T10:32:26.155Z,4.63
2022-12-27T10:35:00.228Z,4.47
2022-12-27T10:37:23.045Z,4.70
2022-12-27T10:39:45.224Z,5.03
2022-12-27T10:42:16.836Z,5.37
2022-12-27T10:44:39.132Z,4.60
2022-12-27T10:47:01.699Z,4.10
2022-12-27T10:49:28.513Z,4.40
2022-12-27T10:51:52.111Z,4.13
2022-12-27T10:54:15.954Z,4.10
2022-12-27T10:56:41.411Z,4.30
2022-12-27T10:59:38.829Z,4.60
2022-12-27T11:02:10.789Z,4.13
2022-12-27T11:04:33.573Z,5.00
2022-12-27T11:07:02.549Z,4.47
2022-12-27T11:09:28.269Z,4.40
2022-12-27T11:11:56.516Z,4.27
2022-12-27T11:14:21.227Z,4.57
2022-12-27T11:16:44.932Z,4.93
2022-12-27T11:19:25.971Z,4.20
2022-12-27T11:21:48.707Z,3.63
2022-12-27T11:24:19.087Z,4.03
2022-12-27T11:27:00.402Z,4.23
2022-12-27T11:29:28.687Z,3.67
2022-12-27T11:31:52.418Z,5.33
2022-12-27T11:34:34.173Z,3.50
2022-12-27T11:37:06.416Z,4.23
2022-12-27T11:39:38.277Z,4.67
2022-12-27T11:42:02.054Z,4.27
2022-12-27T11:44:33.362Z,4.63
2022-12-27T11:46:59.471Z,4.77
2022-12-27T11:49:23.911Z,3.67
2022-12-27T11:52:09.596Z,3.70
2022-12-27T11:54:43.586Z,4.10
2022-12-27T11:57:15.463Z,4.57
2022-12-27T11:59:52.731Z,4.27
2022-12-27T12:02:22.538Z,4.57
2022-12-27T12:05:13.254Z,4.20
2022-12-27T12:07:54.228Z,4.17
2022-12-27T12:10:25.878Z,4.57
2022-12-27T12:13:04.386Z,4.90
2022-12-27T12:15:45.362Z,4.13
2022-12-27T12:18:14.005Z,3.93
2022-12-27T12:20:48.754Z,4.20
2022-12-27T12:23:19.144Z,4.33
2022-12-27T12:25:52.855Z,4.17
2022-12-27T12:31:35.117Z,3.60
2022-12-27T12:34:02.336Z,3.60
2022-12-27T12:36:36.622Z,4.07
2022-12-27T12:39:01.748Z,3.53
2022-12-27T12:41:42.739Z,3.57
2022-12-27T12:44:14.268Z,3.57
2022-12-27T12:46:46.586Z,4.80
2022-12-27T12:49:16.941Z,4.10
2022-12-27T12:51:47.443Z,3.70
2022-12-27T12:54:15.437Z,3.67
2022-12-27T12:56:43.263Z,3.90
2022-12-27T12:59:11.913Z,4.77
2022-12-27T13:01:53.726Z,4.20
2022-12-27T13:04:18.914Z,3.27
2022-12-27T13:06:52.577Z,4.07
2022-12-27T13:09:24.299Z,4.03
2022-12-27T13:11:51.231Z,3.60
2022-12-27T13:14:22.919Z,3.90
2022-12-27T13:16:45.101Z,3.60
2022-12-27T13:19:22.690Z,3.40
2022-12-27T13:22:03.331Z,3.30
2022-12-27T13:24:44.280Z,3.23
2022-12-27T13:27:12.181Z,3.67
2022-12-27T13:29:38.247Z,3.60
2022-12-27T13:32:03.502Z,3.23
2022-12-27T13:34:31.936Z,3.13
2022-12-27T13:37:07.388Z,3.23
2022-12-27T13:39:35.403Z,2.83
2022-12-27T13:42:02.977Z,3.50
2022-12-27T13:44:49.276Z,3.17
2022-12-27T13:47:12.310Z,3.00
2022-12-27T13:49:49.926Z,3.10
2022-12-27T13:52:31.043Z,3.00
2022-12-27T13:54:56.261Z,3.47
2022-12-27T13:57:37.440Z,3.60
2022-12-27T14:00:19.386Z,3.40
2022-12-27T14:03:00.592Z,2.77
2022-12-27T14:05:44.371Z,3.50
2022-12-27T14:08:06.557Z,2.90
2022-12-27T14:10:36.173Z,3.60
2022-12-27T14:12:58.514Z,3.00
2022-12-27T14:15:22.906Z,3.40
2022-12-27T14:17:45.185Z,3.17
2022-12-27T14:20:10.139Z,3.00
2022-12-27T14:22:32.754Z,2.77
2022-12-27T14:24:54.949Z,2.90
2022-12-27T14:27:20.303Z,3.07
2022-12-27T14:30:01.218Z,2.93
2022-12-27T14:32:34.739Z,3.10
2022-12-27T14:35:02.742Z,2.73
2022-12-27T14:37:43.987Z,3.10
2022-12-27T14:40:27.567Z,3.30
2022-12-27T14:43:15.678Z,2.93
2022-12-27T14:45:43.640Z,2.40
2022-12-27T14:48:26.207Z,2.80
2022-12-27T14:50:48.401Z,2.80
2022-12-27T14:53:37.604Z,3.00
2022-12-27T14:56:03.629Z,2.93
2022-12-27T14:58:47.287Z,2.83
2022-12-27T15:01:24.684Z,3.60
2022-12-27T15:03:47.432Z,2.83
2022-12-27T15:06:28.617Z,2.70
2022-12-27T15:09:05.372Z,9.33
2022-12-27T15:11:29.293Z,3.00
2022-12-27T15:13:57.654Z,3.97
2022-12-27T15:16:25.892Z,2.83
2022-12-27T15:19:00.420Z,3.07
2022-12-27T15:21:41.434Z,3.00
2022-12-27T15:24:12.393Z,2.87
2022-12-27T15:26:39.629Z,3.13
2022-12-27T15:29:05.040Z,3.20
2022-12-27T15:31:34.976Z,2.97
2022-12-27T15:34:13.033Z,3.73
2022-12-27T15:36:40.751Z,2.77
2022-12-27T15:39:03.117Z,3.67
2022-12-27T15:41:44.028Z,3.30
2022-12-27T15:44:21.577Z,2.93
2022-12-27T15:47:06.719Z,3.30
2022-12-27T15:49:47.409Z,3.10
2022-12-27T15:52:35.685Z,3.17
2022-12-27T15:55:16.287Z,3.20
2022-12-27T15:57:58.757Z,3.20
2022-12-27T16:00:24.038Z,3.63
2022-12-27T16:02:51.021Z,3.67
2022-12-27T16:05:19.567Z,3.40
2022-12-27T16:07:41.781Z,3.73
2022-12-27T16:10:22.680Z,3.73
2022-12-27T16:12:45.155Z,4.30
2022-12-27T16:15:26.208Z,4.00
2022-12-27T16:17:55.631Z,4.17
2022-12-27T16:20:22.187Z,3.87
2022-12-27T16:22:50.671Z,3.43
2022-12-27T16:25:19.235Z,3.20
2022-12-27T16:27:43.532Z,3.80
2022-12-27T16:30:05.990Z,3.50
2022-12-27T16:32:28.609Z,3.50
2022-12-27T16:34:54.293Z,4.70
2022-12-27T16:37:27.207Z,3.73
2022-12-27T16:39:56.321Z,3.70
2022-12-27T16:42:20.782Z,3.93
2022-12-27T16:44:48.982Z,4.73
2022-12-27T16:47:35.803Z,4.10
2022-12-27T16:50:10.275Z,4.37
2022-12-27T16:52:48.403Z,4.90
2022-12-27T16:55:19.990Z,4.73
2022-12-27T16:57:42.820Z,4.70
2022-12-27T17:00:11.080Z,5.90
2022-12-27T17:02:41.948Z,6.07
2022-12-27T17:05:05.489Z,5.40
2022-12-27T17:07:56.853Z,5.20
2022-12-27T17:10:28.185Z,5.73
2022-12-27T17:12:53.429Z,6.27
2022-12-27T17:15:16.120Z,5.67
2022-12-27T17:17:38.500Z,4.83
2022-12-27T17:20:02.667Z,5.40
2022-12-27T17:22:32.322Z,4.37
2022-12-27T17:24:58.215Z,6.77
2022-12-27T17:27:23.450Z,6.97
2022-12-27T17:29:48.692Z,7.17
2022-12-27T17:32:29.933Z,8.37
2022-12-27T17:34:57.030Z,10.87
2022-12-27T17:37:39.063Z,6.87
2022-12-27T17:40:19.613Z,9.20
2022-12-27T17:43:14.019Z,5.53
2022-12-27T17:45:43.013Z,5.67
2022-12-27T17:48:05.193Z,6.23
2022-12-27T17:50:28.079Z,9.60
2022-12-27T17:53:22.787Z,6.37
2022-12-27T17:56:18.213Z,4.60
2022-12-27T17:58:40.467Z,5.37
2022-12-27T18:01:03.211Z,5.20
2022-12-27T18:03:30.559Z,5.50
2022-12-27T18:05:52.982Z,5.77
2022-12-27T18:08:18.266Z,6.07
2022-12-27T18:10:42.166Z,4.97
2022-12-27T18:13:06.465Z,5.47
2022-12-27T18:15:30.082Z,5.27
2022-12-27T18:17:53.801Z,4.90
2022-12-27T18:20:28.795Z,5.73
2022-12-27T18:22:51.089Z,4.93
2022-12-27T18:25:26.459Z,7.57
2022-12-27T18:27:59.283Z,9.90
2022-12-27T18:30:21.612Z,6.37
2022-12-27T18:32:43.859Z,10.13
2022-12-27T18:35:06.553Z,6.53
2022-12-27T18:37:29.126Z,6.83
2022-12-27T18:40:00.383Z,6.27
2022-12-27T18:42:29.709Z,6.23
2022-12-27T18:44:54.824Z,5.83
2022-12-27T18:47:27.758Z,5.77
2022-12-27T18:50:13.101Z,6.23
2022-12-27T18:52:40.279Z,6.63
2022-12-27T18:55:13.747Z,5.93
2022-12-27T18:57:36.934Z,6.67
2022-12-27T19:00:15.282Z,8.30
2022-12-27T19:02:37.961Z,6.27
2022-12-27T19:05:18.820Z,6.43
2022-12-27T19:07:41.205Z,7.07
2022-12-27T19:10:03.652Z,8.27
2022-12-27T19:12:34.197Z,7.90
2022-12-27T19:14:56.603Z,7.60
2022-12-27T19:17:23.667Z,7.00
2022-12-27T19:19:47.369Z,6.83
2022-12-27T19:22:28.520Z,7.90
2022-12-27T19:24:58.016Z,7.63
2022-12-27T19:27:24.759Z,8.13
2022-12-27T19:32:35.744Z,7.77
2022-12-27T19:34:59.280Z,8.77
2022-12-27T19:37:21.973Z,9.20
2022-12-27T19:39:46.311Z,8.20
2022-12-27T19:42:12.145Z,8.17
2022-12-27T19:44:34.459Z,8.63
2022-12-27T19:46:56.802Z,8.07
2022-12-27T19:52:01.618Z,7.77
2022-12-27T19:54:27.013Z,8.77
2022-12-27T19:56:49.638Z,8.23
2022-12-27T19:59:16.224Z,8.37
2022-12-27T20:01:38.656Z,9.60
2022-12-27T20:04:00.954Z,9.20
2022-12-27T20:06:26.817Z,7.20
2022-12-27T20:08:51.611Z,8.37
2022-12-27T20:11:32.001Z,8.63
2022-12-27T20:13:54.377Z,8.80
2022-12-27T20:16:17.700Z,8.63
2022-12-27T20:18:40.358Z,8.33
2022-12-27T20:21:02.576Z,8.57
2022-12-27T20:23:25.019Z,8.23
2022-12-27T20:25:48.270Z,9.97
2022-12-27T20:28:10.966Z,10.33
2022-12-27T20:30:34.237Z,9.10
2022-12-27T20:32:56.595Z,8.60
2022-12-27T20:35:18.845Z,8.47
2022-12-27T20:37:41.301Z,7.90
2022-12-27T20:40:04.199Z,8.03
2022-12-27T20:42:27.155Z,7.97
2022-12-27T20:44:49.397Z,7.73
2022-12-27T20:47:11.768Z,7.00
2022-12-27T20:49:34.020Z,7.67
2022-12-27T20:51:56.209Z,8.17
2022-12-27T20:54:18.536Z,7.10
2022-12-27T20:56:40.915Z,7.73
2022-12-27T20:59:03.552Z,7.87
2022-12-27T21:01:32.274Z,7.70
2022-12-27T21:03:56.042Z,7.03
2022-12-27T21:06:20.487Z,7.80
2022-12-27T21:08:47.733Z,7.97
2022-12-27T21:11:12.877Z,8.53
2022-12-27T21:13:41.384Z,8.30
2022-12-27T21:16:03.665Z,8.13
2022-12-27T21:18:25.944Z,8.33
2022-12-27T21:20:48.114Z,8.87
2022-12-27T21:23:10.336Z,9.57
2022-12-27T21:25:33.196Z,10.37
2022-12-27T21:27:55.381Z,11.87
2022-12-27T21:30:17.670Z,10.67
2022-12-27T21:32:39.847Z,10.50
2022-12-27T21:35:02.201Z,11.83
2022-12-27T21:37:24.447Z,12.40
2022-12-27T21:39:46.656Z,11.93
2022-12-27T21:42:08.986Z,12.33
2022-12-27T21:44:31.327Z,13.37
2022-12-27T21:46:53.592Z,13.60
2022-12-27T21:49:15.925Z,12.17
2022-12-27T21:51:38.607Z,12.57
2022-12-27T21:54:01.194Z,12.10
2022-12-27T21:56:23.738Z,13.57
2022-12-27T21:58:46.019Z,12.63
2022-12-27T22:01:09.647Z,12.73
2022-12-27T22:03:35.633Z,13.50
2022-12-27T22:05:58.047Z,14.43
2022-12-27T22:08:20.375Z,13.77
2022-12-27T22:10:42.616Z,14.00
2022-12-27T22:13:04.794Z,13.17
2022-12-27T22:15:27.081Z,14.07
2022-12-27T22:17:49.451Z,13.30
2022-12-27T22:20:12.226Z,13.13
2022-12-27T22:22:34.431Z,12.53
2022-12-27T22:24:56.737Z,13.63
2022-12-27T22:27:18.905Z,13.23
2022-12-27T22:29:41.101Z,14.00
2022-12-27T22:32:03.440Z,13.23
2022-12-27T22:34:25.610Z,13.17
2022-12-27T22:36:50.867Z,12.87
2022-12-27T22:39:13.165Z,12.97
2022-12-27T22:41:36.242Z,13.37
2022-12-27T22:44:00.356Z,13.67
2022-12-27T22:46:23.520Z,12.40
2022-12-27T22:48:50.044Z,11.87
2022-12-27T22:51:20.264Z,11.40
2022-12-27T22:53:42.582Z,11.40
2022-12-27T22:56:05.081Z,10.93
2022-12-27T22:58:33.606Z,10.40
2022-12-27T23:00:56.057Z,10.10
2022-12-27T23:03:18.250Z,10.60
2022-12-27T23:05:40.468Z,10.80
2022-12-27T23:08:03.627Z,9.30
2022-12-27T23:10:30.454Z,10.50
2022-12-27T23:12:52.755Z,10.37
2022-12-27T23:15:14.966Z,9.43
2022-12-27T23:17:37.291Z,9.37
2022-12-27T23:19:59.529Z,9.90
2022-12-27T23:22:21.818Z,10.50
2022-12-27T23:24:47.165Z,10.13
2022-12-27T23:27:09.425Z,10.03
2022-12-27T23:29:31.712Z,10.13
2022-12-27T23:31:55.398Z,9.63
2022-12-27T23:34:22.562Z,10.57
2022-12-27T23:36:49.651Z,10.30
2022-12-27T23:39:11.866Z,10.47
2022-12-27T23:41:36.968Z,10.47
2022-12-27T23:44:00.963Z,10.53
2022-12-27T23:46:25.938Z,10.33
2022-12-27T23:48:48.180Z,10.13
2022-12-27T23:51:11.337Z,10.87
2022-12-27T23:53:33.627Z,10.43
2022-12-27T23:55:56.866Z,10.17
2022-12-27T23:58:19.081Z,9.57
